Time;durP1;ratioP1;P1;durP2;ratioP2;P2;SDS_P1;SDS_P2;PMS_P1;PMS_P2;Temp;Humidity;BMP_temperature;BMP_pressure;BME280_temperature;BME280_humidity;BME280_pressure;Samples;Min_cycle;Max_cycle;Signal;HPM_P1;HPM_P2
2022/08/06 00:10:08;;;;;;;8.20;6.80;;;;;;;22.54;57.09;99284.63;431191;1274;142172;-64
2022/08/06 00:20:15;;;;;;;7.30;6.60;;;;;;;22.85;57.00;99295.77;430697;1274;145650;-62
2022/08/06 00:30:36;;;;;;;8.00;7.30;;;;;;;23.19;56.34;99309.18;430945;1274;144395;-62
2022/08/06 00:40:42;;;;;;;7.40;6.50;;;;;;;23.32;56.13;99299.84;429730;1273;154905;-63
2022/08/06 00:51:03;;;;;;;6.60;6.00;;;;;;;23.25;56.10;99302.62;430471;1274;142381;-63
2022/08/06 01:01:16;;;;;;;6.40;5.80;;;;;;;22.80;56.59;99310.70;430016;1274;142279;-61
2022/08/06 01:11:23;;;;;;;7.80;6.20;;;;;;;22.33;57.64;99314.04;431763;1274;142267;-63
2022/08/06 01:21:46;;;;;;;7.70;7.10;;;;;;;22.03;58.54;99321.26;431116;1274;142088;-62
2022/08/06 01:32:17;;;;;;;7.40;6.80;;;;;;;21.84;59.65;99320.06;431206;1274;141804;-62
2022/08/06 01:42:25;;;;;;;7.70;6.90;;;;;;;21.65;60.39;99320.25;430210;1274;142919;-63
2022/08/06 01:52:43;;;;;;;7.40;6.70;;;;;;;21.43;61.42;99333.42;430128;1274;142159;-65
2022/08/06 02:03:11;;;;;;;8.30;7.60;;;;;;;21.21;62.64;99338.65;430936;1274;142761;-63
2022/08/06 02:13:28;;;;;;;7.80;7.10;;;;;;;21.05;64.04;99344.66;431891;1272;146292;-62
2022/08/06 02:23:49;;;;;;;8.20;7.50;;;;;;;20.89;65.23;99347.15;431717;1274;147418;-62
2022/08/06 02:33:56;;;;;;;9.10;8.30;;;;;;;20.69;66.16;99345.02;429887;1274;146546;-63
2022/08/06 02:44:25;;;;;;;11.60;10.40;;;;;;;20.52;67.26;99351.67;430697;1273;142849;-62
2022/08/06 02:54:42;;;;;;;10.80;9.60;;;;;;;20.45;68.20;99393.31;431973;1274;142723;-62
2022/08/06 03:04:53;;;;;;;10.50;9.20;;;;;;;20.47;68.92;99418.40;432133;1274;148265;-63
2022/08/06 03:15:04;;;;;;;10.50;9.60;;;;;;;20.43;69.56;99436.73;432563;1274;145892;-63
2022/08/06 03:25:19;;;;;;;9.10;8.20;;;;;;;20.38;70.37;99458.23;431659;1274;141949;-63
2022/08/06 03:35:28;;;;;;;10.30;9.20;;;;;;;20.31;71.04;99488.89;430024;1273;142139;-62
2022/08/06 03:45:59;;;;;;;9.70;8.80;;;;;;;20.26;71.48;99509.11;431849;1274;141916;-62
2022/08/06 03:56:07;;;;;;;9.60;8.50;;;;;;;20.23;72.21;99529.16;433585;1274;145994;-63
2022/08/06 04:06:21;;;;;;;7.90;7.30;;;;;;;20.17;72.22;99543.11;431175;1274;147106;-62
2022/08/06 04:16:33;;;;;;;8.20;7.00;;;;;;;20.09;72.15;99559.98;431286;1274;142159;-62
2022/08/06 04:26:43;;;;;;;6.50;6.00;;;;;;;20.01;72.53;99573.07;431547;1273;142884;-63
2022/08/06 04:36:50;;;;;;;5.60;4.90;;;;;;;19.96;72.39;99582.74;430948;1274;141100;-63
2022/08/06 04:47:00;;;;;;;5.60;5.20;;;;;;;19.91;72.08;99614.90;431859;1271;143079;-63
2022/08/06 04:57:06;;;;;;;6.80;5.60;;;;;;;19.77;72.22;99606.70;432130;1274;146953;-63
2022/08/06 05:07:30;;;;;;;6.90;6.30;;;;;;;19.65;73.27;99610.91;430054;1274;142434;-63
2022/08/06 05:18:01;;;;;;;6.90;6.30;;;;;;;19.43;74.29;99629.08;431539;1272;142967;-63
2022/08/06 05:28:08;;;;;;;9.00;7.90;;;;;;;19.28;75.01;99628.44;430499;1274;142445;-63
2022/08/06 05:38:16;;;;;;;9.10;8.00;;;;;;;18.99;76.75;99632.02;430664;1274;143520;-64
2022/08/06 05:48:41;;;;;;;10.60;9.10;;;;;;;18.71;78.08;99625.03;430224;1273;142764;-64
2022/08/06 05:58:54;;;;;;;17.10;10.30;;;;;;;18.55;78.95;99639.63;436458;1274;142423;-62
2022/08/06 06:09:00;;;;;;;9.10;8.30;;;;;;;18.43;79.94;99638.43;447025;1272;142696;-63
2022/08/06 06:19:21;;;;;;;7.60;6.90;;;;;;;18.46;80.32;99668.33;446349;1273;143457;-63
2022/08/06 06:29:39;;;;;;;7.70;6.90;;;;;;;18.45;80.60;99691.22;446275;1272;143080;-62
2022/08/06 06:40:15;;;;;;;4.80;4.50;;;;;;;18.53;80.92;99726.67;440292;1274;143498;-63
2022/08/06 06:50:26;;;;;;;3.80;3.30;;;;;;;18.53;81.25;99739.60;446270;1274;142530;-64
2022/08/06 07:00:33;;;;;;;3.40;3.20;;;;;;;18.58;81.01;99740.36;447040;1273;142029;-64
2022/08/06 07:10:55;;;;;;;3.60;3.00;;;;;;;18.50;80.93;99757.95;446099;1274;144810;-64
2022/08/06 07:21:02;;;;;;;4.10;3.00;;;;;;;18.35;81.17;99780.46;447022;1274;145705;-64
2022/08/06 07:31:10;;;;;;;4.20;3.30;;;;;;;17.94;80.97;99828.13;438072;1273;142755;-64
2022/08/06 07:41:18;;;;;;;3.60;3.10;;;;;;;17.64;81.26;99851.34;431012;1274;143557;-62
2022/08/06 07:51:47;;;;;;;3.10;2.70;;;;;;;17.48;81.65;99863.21;446962;1274;143926;-63
2022/08/06 08:01:54;;;;;;;4.00;3.40;;;;;;;17.31;81.47;99883.45;446136;1274;143319;-64
2022/08/06 08:12:04;;;;;;;3.90;2.50;;;;;;;17.06;81.80;99903.96;446962;1274;142334;-64
2022/08/06 08:22:29;;;;;;;5.80;2.40;;;;;;;16.92;82.01;99924.75;446910;1273;145896;-65
2022/08/06 08:32:36;;;;;;;3.70;2.60;;;;;;;16.87;81.84;99918.66;446036;1274;143052;-63
2022/08/06 08:42:44;;;;;;;;;;;;;;;16.84;81.71;99942.61;447029;1274;142542;-65
2022/08/06 08:52:53;;;;;;;1.90;1.70;;;;;;;16.72;81.88;99953.98;446485;1274;129334;-64
2022/08/06 09:02:59;;;;;;;2.00;1.70;;;;;;;16.64;82.07;99971.61;446972;1273;142556;-64
2022/08/06 09:13:05;;;;;;;2.10;1.90;;;;;;;16.49;82.26;99975.52;446975;1274;142666;-63
2022/08/06 09:23:28;;;;;;;4.00;3.50;;;;;;;16.39;82.38;99991.75;441079;1274;142708;-61
2022/08/06 09:34:00;;;;;;;3.10;2.60;;;;;;;16.30;82.44;100011.38;438980;1274;142481;-63
2022/08/06 09:44:25;;;;;;;2.60;1.80;;;;;;;16.30;82.20;100021.05;433824;1274;142392;-64
2022/08/06 09:54:42;;;;;;;6.70;2.30;;;;;;;16.46;81.18;100036.91;431148;1274;143491;-62
2022/08/06 10:04:51;;;;;;;4.20;2.50;;;;;;;16.51;81.16;100052.76;430793;1273;142532;-64
2022/08/06 10:14:57;;;;;;;;;;;;;;;16.56;80.93;100053.29;430727;1274;141590;-63
2022/08/06 10:25:07;;;;;;;3.10;2.30;;;;;;;16.54;81.19;100064.54;430668;1273;128751;-63
2022/08/06 10:35:19;;;;;;;2.20;1.80;;;;;;;16.58;80.48;100079.44;429914;1275;142532;-63
2022/08/06 10:45:31;;;;;;;1.50;1.40;;;;;;;16.90;79.55;100081.09;430015;1274;143578;-62
2022/08/06 10:55:56;;;;;;;1.50;1.40;;;;;;;17.10;77.96;100085.10;429987;1275;143022;-62
2022/08/06 11:06:21;;;;;;;4.60;2.70;;;;;;;17.36;76.65;100085.42;436937;1273;142920;-62
2022/08/06 11:16:40;;;;;;;3.30;1.80;;;;;;;18.07;75.47;100093.48;429674;1274;149215;-62
2022/08/06 11:26:47;;;;;;;2.60;1.70;;;;;;;18.70;73.26;100101.45;430390;1274;1148352;-63
2022/08/06 11:36:59;;;;;;;2.70;1.60;;;;;;;18.62;72.19;100102.58;429917;1274;142381;-63
2022/08/06 11:47:26;;;;;;;2.80;1.80;;;;;;;18.85;71.45;100107.07;429467;1274;146935;-61
2022/08/06 11:57:41;;;;;;;;;;;;;;;19.51;70.76;100110.10;430361;1274;142947;-63
2022/08/06 12:08:24;;;;;;;1.30;1.20;;;;;;;20.03;68.85;100110.63;430151;1274;128297;-61
2022/08/06 12:18:47;;;;;;;2.00;1.10;;;;;;;20.54;67.54;100117.08;429841;1274;142656;-65
2022/08/06 12:28:56;;;;;;;4.40;1.70;;;;;;;20.70;65.67;100114.51;429655;1274;143315;-63
2022/08/06 12:39:03;;;;;;;3.00;1.50;;;;;;;21.05;64.63;100115.65;429837;1274;148976;-64
2022/08/06 12:49:12;;;;;;;2.80;1.10;;;;;;;21.17;62.50;100107.79;429985;1274;147473;-63
2022/08/06 12:59:20;;;;;;;2.20;1.40;;;;;;;21.10;62.17;100099.52;429344;1274;143138;-63
2022/08/06 13:09:34;;;;;;;1.30;0.80;;;;;;;21.31;61.28;100102.83;429933;1274;147432;-64
2022/08/06 13:19:59;;;;;;;3.20;0.70;;;;;;;21.14;60.09;100105.23;429186;1274;142644;-63
2022/08/06 13:30:08;;;;;;;0.40;0.40;;;;;;;21.00;59.48;100099.89;429700;1276;144147;-64
2022/08/06 13:40:45;;;;;;;0.70;0.50;;;;;;;21.24;57.41;100104.76;430064;1274;143516;-63
2022/08/06 13:51:12;;;;;;;1.30;0.60;;;;;;;21.40;56.19;100105.46;430438;1274;141090;-63
2022/08/06 14:01:33;;;;;;;0.80;0.30;;;;;;;21.60;55.87;100106.09;430073;1274;145451;-64
2022/08/06 14:11:50;;;;;;;;;;;;;;;21.89;55.05;100104.58;430297;1274;142447;-63
2022/08/06 14:22:02;;;;;;;2.80;0.80;;;;;;;21.59;54.40;100108.53;431208;1274;130396;-63
2022/08/06 14:32:09;;;;;;;0.30;0.30;;;;;;;21.59;54.58;100106.21;432054;1274;142483;-62
2022/08/06 14:52:43;;;;;;;1.30;0.80;;;;;;;22.20;53.58;100097.70;436989;1274;142678;-62
2022/08/06 15:02:51;;;;;;;1.30;1.00;;;;;;;21.99;53.21;100102.02;431343;1274;146906;-64
2022/08/06 15:12:57;;;;;;;2.00;1.00;;;;;;;21.70;53.92;100106.36;430676;1274;142951;-64
2022/08/06 15:23:07;;;;;;;2.70;1.00;;;;;;;21.26;53.71;100104.00;435101;1274;142768;-62
2022/08/06 15:33:15;;;;;;;1.60;1.00;;;;;;;21.00;53.05;100115.30;432827;1274;142099;-62
2022/08/06 15:43:21;;;;;;;3.40;2.00;;;;;;;21.39;52.91;100114.95;446930;1272;142253;-62
2022/08/06 15:53:28;;;;;;;2.00;1.40;;;;;;;21.26;52.58;100107.23;434919;1274;142561;-62
2022/08/06 16:03:35;;;;;;;1.00;0.90;;;;;;;21.01;52.06;100103.49;430100;1274;142303;-64
2022/08/06 16:14:01;;;;;;;1.50;0.70;;;;;;;21.24;51.82;100099.94;429629;1274;163214;-62
2022/08/06 16:24:08;;;;;;;0.70;0.40;;;;;;;21.31;51.10;100108.84;430419;1274;142530;-62
2022/08/06 16:34:14;;;;;;;1.30;1.20;;;;;;;21.13;51.07;100108.13;432192;1274;141065;-64
2022/08/06 16:44:28;;;;;;;1.60;0.70;;;;;;;20.77;51.38;100113.85;430351;1274;145418;-62
2022/08/06 16:54:41;;;;;;;1.10;0.50;;;;;;;20.44;51.34;100121.27;430270;1274;156333;-63
2022/08/06 17:04:48;;;;;;;1.60;0.60;;;;;;;20.14;51.73;100124.47;429556;1274;142491;-63
2022/08/06 17:14:54;;;;;;;1.20;0.70;;;;;;;19.90;52.07;100132.44;430598;1273;142378;-62
2022/08/06 17:25:01;;;;;;;1.90;0.90;;;;;;;19.73;52.77;100132.45;430159;1274;143115;-63
2022/08/06 17:35:11;;;;;;;0.90;0.80;;;;;;;19.49;53.82;100129.01;429927;1276;147114;-63
2022/08/06 17:45:19;;;;;;;1.70;0.90;;;;;;;19.16;56.47;100130.00;430371;1274;142566;-63
2022/08/06 17:55:25;;;;;;;10.40;2.00;;;;;;;18.78;57.44;100133.41;430058;1274;141816;-62
2022/08/06 18:05:43;;;;;;;8.00;2.30;;;;;;;18.36;59.56;100139.27;430359;1274;147074;-62
2022/08/06 18:15:49;;;;;;;19.50;2.90;;;;;;;17.88;61.02;100151.29;430130;1274;143313;-62
2022/08/06 18:25:58;;;;;;;8.30;1.50;;;;;;;17.45;62.46;100164.14;429258;1274;148440;-61
2022/08/06 18:36:08;;;;;;;14.30;3.00;;;;;;;17.11;63.89;100172.72;446705;1273;142872;-62
2022/08/06 18:46:14;;;;;;;11.00;2.90;;;;;;;16.75;65.30;100183.40;446788;1274;142602;-62
2022/08/06 18:56:21;;;;;;;8.80;4.00;;;;;;;16.60;66.27;100185.49;445830;1274;184431;-62
2022/08/06 19:06:32;;;;;;;4.70;2.20;;;;;;;16.55;66.91;100196.52;436429;1274;145931;-62
2022/08/06 19:16:39;;;;;;;10.50;2.50;;;;;;;16.46;67.39;100200.58;446793;1272;143227;-65
2022/08/06 19:26:53;;;;;;;10.90;3.50;;;;;;;16.39;67.87;100203.21;436375;1272;214418;-62
2022/08/06 19:36:59;;;;;;;10.60;4.70;;;;;;;16.33;68.59;100203.52;430361;1274;142424;-63
2022/08/06 19:47:10;;;;;;;3.60;1.90;;;;;;;16.14;69.09;100209.42;429498;1274;143099;-63
2022/08/06 19:57:36;;;;;;;4.30;1.60;;;;;;;15.81;69.87;100213.27;430434;1272;142617;-64
2022/08/06 20:07:42;;;;;;;4.90;1.60;;;;;;;15.49;70.69;100220.20;429738;1274;143511;-63
2022/08/06 20:18:08;;;;;;;4.80;1.50;;;;;;;15.19;71.50;100229.48;430696;1273;145710;-62
2022/08/06 20:28:16;;;;;;;4.10;2.30;;;;;;;14.91;72.36;100239.61;430303;1274;146532;-61
2022/08/06 20:38:42;;;;;;;8.60;3.10;;;;;;;14.66;72.83;100239.77;429272;1274;143659;-62
2022/08/06 20:48:50;;;;;;;5.80;2.30;;;;;;;14.52;72.70;100252.16;430640;1274;141887;-62
2022/08/06 20:58:56;;;;;;;4.40;2.10;;;;;;;14.79;71.82;100257.91;429493;1274;143830;-62
2022/08/06 21:09:02;;;;;;;5.00;1.80;;;;;;;14.88;70.86;100265.05;431733;1272;143080;-61
2022/08/06 21:19:09;;;;;;;3.40;2.00;;;;;;;14.92;69.94;100266.69;430394;1274;143007;-64
2022/08/06 21:29:14;;;;;;;2.70;1.30;;;;;;;15.12;68.59;100276.50;428979;1275;147878;-62
2022/08/06 21:39:40;;;;;;;1.70;1.30;;;;;;;15.40;66.83;100279.84;431097;1274;144069;-62
2022/08/06 21:50:01;;;;;;;4.30;1.10;;;;;;;15.65;64.81;100286.80;431201;1272;148101;-60
2022/08/06 22:00:43;;;;;;;1.90;0.80;;;;;;;15.81;63.17;100291.09;431247;1274;143083;-61
2022/08/06 22:10:48;;;;;;;2.30;0.60;;;;;;;15.86;62.02;100296.91;430697;1275;143376;-62
2022/08/06 22:20:59;;;;;;;0.90;0.80;;;;;;;15.81;61.25;100300.78;431597;1274;146451;-64
2022/08/06 22:31:05;;;;;;;3.00;0.90;;;;;;;15.78;60.50;100307.54;430668;1274;144321;-62
2022/08/06 22:41:13;;;;;;;2.00;0.90;;;;;;;15.72;59.79;100306.05;430461;1274;146791;-62
2022/08/06 22:51:19;;;;;;;5.00;1.60;;;;;;;15.57;59.31;100305.58;431086;1274;143715;-61
2022/08/06 23:01:39;;;;;;;3.50;1.60;;;;;;;15.27;59.34;100304.39;432018;1274;142651;-64
2022/08/06 23:12:06;;;;;;;2.70;1.40;;;;;;;15.00;59.53;100301.00;430016;1273;211497;-63
2022/08/06 23:22:13;;;;;;;1.60;0.70;;;;;;;14.75;59.79;100304.02;431154;1274;142085;-62
2022/08/06 23:32:26;;;;;;;0.90;0.70;;;;;;;14.53;60.10;100304.27;430401;1274;1561534;-64
2022/08/06 23:42:35;;;;;;;1.80;1.30;;;;;;;14.32;60.55;100304.45;430678;1274;146937;-63
2022/08/06 23:52:41;;;;;;;5.20;1.30;;;;;;;14.23;60.72;100304.31;430354;1274;160688;-63
